Time;durP1;ratioP1;P1;durP2;ratioP2;P2;SDS_P1;SDS_P2;PMS_P1;PMS_P2;Temp;Humidity;BMP_temperature;BMP_pressure;BME280_temperature;BME280_humidity;BME280_pressure;Samples;Min_cycle;Max_cycle;Signal;HPM_P1;HPM_P2
2023/08/20 00:01:27;;;;;;;7.97;7.27;;;26.60;77.80;;;;;;5037331;28;20213;-59
2023/08/20 00:03:54;;;;;;;7.53;6.87;;;26.60;77.90;;;;;;5040790;28;20206;-59
2023/08/20 00:06:22;;;;;;;7.07;6.37;;;26.60;78.00;;;;;;5036752;28;20636;-59
2023/08/20 00:08:49;;;;;;;8.20;7.40;;;26.60;78.10;;;;;;5038735;28;20630;-60
2023/08/20 00:11:17;;;;;;;11.07;6.90;;;26.60;78.10;;;;;;5046827;28;20305;-60
2023/08/20 00:13:44;;;;;;;9.93;6.90;;;26.60;78.10;;;;;;5050549;28;20225;-59
2023/08/20 00:16:11;;;;;;;7.13;6.37;;;26.60;78.10;;;;;;5039918;28;20227;-60
2023/08/20 00:18:39;;;;;;;7.33;6.63;;;26.50;78.10;;;;;;5041650;28;20218;-60
2023/08/20 00:21:07;;;;;;;7.13;6.53;;;26.50;78.10;;;;;;5038758;28;20605;-60
2023/08/20 00:23:36;;;;;;;8.43;6.50;;;26.50;78.30;;;;;;5039821;28;20543;-60
2023/08/20 00:26:03;;;;;;;7.90;7.07;;;26.50;78.60;;;;;;5040364;28;20202;-60
2023/08/20 00:28:33;;;;;;;7.60;6.73;;;26.40;78.80;;;;;;5037640;28;20199;-60
2023/08/20 00:31:01;;;;;;;7.13;6.53;;;26.30;78.90;;;;;;5044405;28;20206;-59
2023/08/20 00:33:28;;;;;;;10.80;7.27;;;26.30;79.30;;;;;;5043891;28;20551;-60
2023/08/20 00:35:55;;;;;;;9.33;7.00;;;26.30;79.40;;;;;;5044921;28;20206;-60
2023/08/20 00:38:22;;;;;;;9.03;7.07;;;26.20;79.50;;;;;;5050396;28;20213;-60
2023/08/20 00:40:49;;;;;;;9.23;7.27;;;26.20;79.80;;;;;;5046015;28;20198;-59
2023/08/20 00:43:17;;;;;;;8.07;6.90;;;26.10;79.70;;;;;;5044598;28;20213;-59
2023/08/20 00:45:44;;;;;;;13.60;7.70;;;26.10;79.50;;;;;;5047707;28;20220;-59
2023/08/20 00:48:12;;;;;;;7.43;6.83;;;26.10;79.40;;;;;;5051119;28;20203;-59
2023/08/20 00:50:40;;;;;;;9.83;6.93;;;26.10;79.50;;;;;;5044068;28;20261;-60
2023/08/20 00:53:11;;;;;;;9.60;7.40;;;26.10;79.40;;;;;;5045402;28;20297;-60
2023/08/20 00:55:38;;;;;;;8.27;7.57;;;26.10;79.50;;;;;;5040594;28;20221;-60
2023/08/20 00:58:06;;;;;;;9.97;7.37;;;26.10;79.40;;;;;;5046277;28;20626;-59
2023/08/20 01:00:33;;;;;;;10.00;7.80;;;26.00;79.30;;;;;;5044408;28;20626;-59
2023/08/20 01:03:00;;;;;;;9.00;7.90;;;26.00;79.40;;;;;;5041166;28;20221;-60
2023/08/20 01:05:33;;;;;;;13.17;7.47;;;26.00;79.60;;;;;;5045186;28;20325;-59
2023/08/20 01:08:45;;;;;;;8.57;7.83;;;26.00;79.80;;;;;;5044294;28;20198;-59
2023/08/20 01:11:30;;;;;;;8.53;6.90;;;25.90;80.10;;;;;;5042335;28;20610;-60
2023/08/20 01:13:58;;;;;;;7.47;6.87;;;25.80;80.30;;;;;;5044129;28;20233;-60
2023/08/20 01:16:26;;;;;;;10.27;7.10;;;25.80;80.30;;;;;;5044283;28;20195;-59
2023/08/20 01:18:54;;;;;;;9.13;7.93;;;25.80;80.40;;;;;;5041613;28;20199;-59
2023/08/20 01:21:38;;;;;;;10.27;8.40;;;25.80;80.60;;;;;;5047550;28;20202;-59
2023/08/20 01:24:40;;;;;;;10.63;8.03;;;25.70;81.00;;;;;;5044828;28;20249;-59
2023/08/20 01:27:25;;;;;;;10.87;8.40;;;25.70;81.30;;;;;;5045376;28;20225;-60
2023/08/20 01:29:53;;;;;;;11.00;7.27;;;25.60;81.20;;;;;;5042583;28;20302;-59
2023/08/20 01:32:21;;;;;;;9.47;8.00;;;25.60;81.50;;;;;;5043221;28;20296;-59
2023/08/20 01:34:48;;;;;;;10.30;7.90;;;25.60;81.70;;;;;;5042938;28;20219;-60
2023/08/20 01:37:16;;;;;;;8.23;7.30;;;25.50;81.70;;;;;;5040844;28;20516;-59
2023/08/20 01:39:43;;;;;;;10.73;7.60;;;25.50;81.80;;;;;;5043676;28;20298;-61
2023/08/20 01:42:10;;;;;;;14.60;8.10;;;25.40;81.80;;;;;;5048069;28;20209;-59
2023/08/20 01:44:37;;;;;;;12.03;7.50;;;25.40;82.00;;;;;;5039837;28;20199;-59
2023/08/20 01:47:05;;;;;;;8.03;7.23;;;25.40;82.30;;;;;;5049787;28;20624;-60
2023/08/20 01:49:32;;;;;;;8.10;7.30;;;25.40;82.60;;;;;;5039473;28;20206;-59
2023/08/20 01:51:59;;;;;;;14.07;7.00;;;25.40;82.60;;;;;;5041941;28;20651;-59
2023/08/20 01:54:26;;;;;;;8.70;7.90;;;25.40;82.60;;;;;;5040174;28;20214;-59
2023/08/20 01:56:53;;;;;;;8.97;7.20;;;25.30;82.40;;;;;;5037793;28;20203;-59
2023/08/20 01:59:22;;;;;;;11.13;7.20;;;25.40;82.40;;;;;;5040941;28;20201;-60
2023/08/20 02:01:49;;;;;;;13.23;7.37;;;25.30;82.30;;;;;;5051505;28;20285;-59
2023/08/20 02:04:16;;;;;;;13.17;7.73;;;25.30;82.40;;;;;;5040194;28;20643;-60
2023/08/20 02:06:43;;;;;;;8.90;8.00;;;25.20;82.50;;;;;;5040777;28;20230;-60
2023/08/20 02:09:10;;;;;;;11.53;8.70;;;25.20;82.80;;;;;;5038883;28;20212;-60
2023/08/20 02:11:37;;;;;;;9.37;8.43;;;25.20;83.00;;;;;;5036585;28;20231;-59
2023/08/20 02:14:04;;;;;;;9.03;8.17;;;25.20;83.10;;;;;;5046591;28;20583;-59
2023/08/20 02:16:31;;;;;;;9.73;8.30;;;25.20;83.20;;;;;;5050913;28;20282;-59
2023/08/20 02:18:59;;;;;;;9.93;8.00;;;25.20;83.20;;;;;;5039088;28;20630;-60
2023/08/20 02:21:26;;;;;;;9.50;8.27;;;25.10;83.10;;;;;;5044155;28;20204;-60
2023/08/20 02:23:53;;;;;;;13.37;8.87;;;25.10;83.20;;;;;;5046505;28;20664;-59
2023/08/20 02:26:20;;;;;;;8.73;7.83;;;25.10;83.40;;;;;;5044005;28;20634;-59
2023/08/20 02:28:47;;;;;;;9.10;7.87;;;25.10;83.70;;;;;;5042557;28;20217;-60
2023/08/20 02:31:14;;;;;;;8.30;7.50;;;25.00;83.90;;;;;;5043905;28;20224;-59
2023/08/20 02:33:41;;;;;;;10.77;8.27;;;25.00;84.20;;;;;;5044043;28;20218;-60
2023/08/20 02:36:12;;;;;;;11.93;8.03;;;25.00;84.40;;;;;;5043905;28;20198;-59
2023/08/20 02:38:39;;;;;;;9.10;7.50;;;25.00;84.60;;;;;;5039285;28;20204;-59
2023/08/20 02:41:07;;;;;;;13.17;8.33;;;25.00;84.60;;;;;;5043521;28;20196;-59
2023/08/20 02:43:34;;;;;;;8.97;8.17;;;25.00;84.70;;;;;;5042019;28;20197;-59
2023/08/20 02:46:02;;;;;;;13.13;8.40;;;24.90;85.00;;;;;;5043821;28;20282;-59
2023/08/20 02:48:30;;;;;;;9.13;7.60;;;24.90;85.10;;;;;;5042636;28;20202;-60
2023/08/20 02:50:57;;;;;;;9.07;8.03;;;24.90;85.30;;;;;;5040826;28;20204;-59
2023/08/20 02:53:24;;;;;;;8.67;7.87;;;24.80;85.40;;;;;;5044691;28;20691;-59
2023/08/20 02:55:51;;;;;;;10.93;8.23;;;24.90;85.60;;;;;;5040064;28;20293;-60
2023/08/20 02:58:18;;;;;;;8.67;7.87;;;24.90;85.70;;;;;;5039979;28;20251;-59
2023/08/20 03:00:45;;;;;;;10.60;7.97;;;24.90;85.70;;;;;;5046115;28;20203;-60
2023/08/20 03:03:12;;;;;;;9.40;8.40;;;24.90;85.70;;;;;;5044787;28;20267;-60
2023/08/20 03:05:42;;;;;;;8.93;8.13;;;24.80;85.70;;;;;;5042161;28;20252;-59
2023/08/20 03:08:09;;;;;;;9.20;8.37;;;24.80;85.90;;;;;;5042708;28;20219;-60
2023/08/20 03:10:36;;;;;;;9.03;8.13;;;24.80;86.10;;;;;;5038163;28;20211;-59
2023/08/20 03:13:04;;;;;;;8.70;8.00;;;24.80;86.20;;;;;;5038467;28;20238;-59
2023/08/20 03:15:31;;;;;;;10.40;7.83;;;24.70;86.40;;;;;;5046179;28;20207;-60
2023/08/20 03:17:58;;;;;;;10.70;8.10;;;24.70;86.50;;;;;;5035228;28;20581;-60
2023/08/20 03:20:26;;;;;;;9.50;7.93;;;24.70;86.70;;;;;;5031641;28;20201;-59
2023/08/20 03:22:53;;;;;;;10.37;7.53;;;24.60;86.60;;;;;;5041194;28;20207;-60
2023/08/20 03:25:20;;;;;;;9.07;8.20;;;24.70;86.80;;;;;;5038804;28;20703;-60
2023/08/20 03:27:47;;;;;;;8.63;7.30;;;24.70;86.80;;;;;;5036229;28;20198;-60
2023/08/20 03:30:14;;;;;;;8.37;7.57;;;24.70;86.70;;;;;;5044396;28;20199;-59
2023/08/20 03:32:44;;;;;;;7.40;6.70;;;24.70;86.70;;;;;;5039045;28;20675;-59
2023/08/20 03:35:11;;;;;;;8.80;7.90;;;24.70;86.50;;;;;;5043128;28;20241;-60
2023/08/20 03:37:38;;;;;;;15.80;8.63;;;24.70;86.40;;;;;;5041080;28;20199;-59
2023/08/20 03:40:06;;;;;;;8.53;7.73;;;24.60;86.40;;;;;;5045948;28;20236;-60
2023/08/20 03:42:33;;;;;;;9.83;8.00;;;24.60;86.50;;;;;;5040561;28;20638;-60
2023/08/20 03:45:00;;;;;;;13.20;8.40;;;24.60;86.50;;;;;;5041716;28;20606;-60
2023/08/20 03:47:27;;;;;;;10.20;8.33;;;24.60;86.60;;;;;;5037536;28;20204;-59
2023/08/20 03:49:55;;;;;;;9.03;8.13;;;24.60;86.70;;;;;;5041228;28;20242;-60
2023/08/20 03:52:22;;;;;;;11.00;8.67;;;24.60;86.80;;;;;;5046897;28;20210;-59
2023/08/20 03:54:50;;;;;;;10.77;8.10;;;24.50;86.90;;;;;;5041823;28;20296;-59
2023/08/20 03:57:17;;;;;;;9.67;8.67;;;24.50;86.90;;;;;;5042895;28;20246;-60
2023/08/20 03:59:45;;;;;;;9.53;8.53;;;24.50;86.90;;;;;;5038661;28;20269;-59
2023/08/20 04:02:14;;;;;;;9.23;8.13;;;24.50;86.90;;;;;;5042321;28;20198;-59
2023/08/20 04:04:41;;;;;;;10.90;8.50;;;24.50;87.10;;;;;;5039362;28;20606;-60
2023/08/20 04:07:08;;;;;;;9.83;8.93;;;24.50;87.30;;;;;;5045532;28;20234;-59
2023/08/20 04:09:36;;;;;;;11.17;8.87;;;24.40;87.50;;;;;;5047219;28;20209;-59
2023/08/20 04:12:04;;;;;;;12.77;8.87;;;24.50;87.60;;;;;;5045152;28;20206;-60
2023/08/20 04:14:31;;;;;;;11.20;9.50;;;24.40;87.70;;;;;;5045752;28;20214;-59
2023/08/20 04:16:58;;;;;;;11.10;9.63;;;24.40;87.80;;;;;;5045607;28;20523;-60
2023/08/20 04:19:25;;;;;;;14.53;9.37;;;24.40;88.10;;;;;;5041398;28;20646;-59
2023/08/20 04:21:52;;;;;;;13.33;9.53;;;24.40;88.20;;;;;;5046740;28;20585;-59
2023/08/20 04:24:19;;;;;;;10.33;8.07;;;24.40;88.20;;;;;;5045351;28;20207;-60
2023/08/20 04:26:46;;;;;;;10.43;9.03;;;24.40;88.40;;;;;;5043948;28;20199;-59
2023/08/20 04:29:18;;;;;;;9.23;8.43;;;24.40;88.50;;;;;;5053700;28;20236;-59
2023/08/20 04:31:45;;;;;;;10.40;8.67;;;24.40;88.60;;;;;;5046696;28;20218;-59
2023/08/20 04:34:12;;;;;;;12.57;9.20;;;24.40;88.70;;;;;;5043399;28;20220;-60
2023/08/20 04:36:46;;;;;;;10.33;9.23;;;24.40;88.70;;;;;;5049521;28;20211;-59
2023/08/20 04:39:13;;;;;;;10.97;9.73;;;24.40;88.70;;;;;;5047799;28;20207;-59
2023/08/20 04:41:44;;;;;;;9.87;9.07;;;24.40;88.70;;;;;;5043855;28;20202;-60
2023/08/20 04:44:15;;;;;;;11.80;9.03;;;24.40;89.20;;;;;;5042352;28;20682;-60
2023/08/20 04:46:43;;;;;;;10.83;9.10;;;24.50;88.40;;;;;;5042415;28;20543;-59
2023/08/20 04:49:11;;;;;;;9.50;8.60;;;24.40;88.60;;;;;;5049401;28;20278;-60
2023/08/20 04:51:38;;;;;;;11.23;8.93;;;24.40;88.50;;;;;;5041823;28;20604;-60
2023/08/20 04:54:05;;;;;;;9.63;8.67;;;24.40;88.70;;;;;;5044665;28;20231;-60
2023/08/20 04:56:32;;;;;;;9.90;8.07;;;24.40;88.80;;;;;;5040226;28;20194;-60
2023/08/20 04:58:59;;;;;;;10.97;8.60;;;24.50;89.00;;;;;;5043396;28;20234;-59
2023/08/20 05:01:49;;;;;;;9.33;8.37;;;24.50;88.60;;;;;;5043531;28;20215;-60
2023/08/20 05:04:20;;;;;;;10.53;9.43;;;24.60;88.30;;;;;;5045302;28;20268;-59
2023/08/20 05:06:47;;;;;;;13.20;9.23;;;24.60;88.20;;;;;;5032989;28;20206;-60
2023/08/20 05:09:16;;;;;;;10.47;9.33;;;24.60;88.90;;;;;;5042164;28;20361;-60
2023/08/20 05:11:43;;;;;;;13.03;9.10;;;24.60;88.30;;;;;;5042632;28;20589;-60
2023/08/20 05:14:10;;;;;;;10.87;9.00;;;24.70;88.20;;;;;;5041658;28;20226;-60
2023/08/20 05:16:37;;;;;;;13.20;8.97;;;24.80;88.20;;;;;;5045559;28;20196;-60
2023/08/20 05:19:04;;;;;;;10.03;7.93;;;24.80;88.20;;;;;;5041552;28;20576;-60
2023/08/20 05:21:32;;;;;;;8.80;7.97;;;24.90;88.20;;;;;;5049953;28;20264;-60
2023/08/20 05:23:59;;;;;;;11.77;8.23;;;25.00;88.20;;;;;;5044770;28;20533;-60
2023/08/20 05:26:26;;;;;;;11.13;8.63;;;25.00;88.10;;;;;;5048456;28;20260;-60
2023/08/20 05:28:53;;;;;;;11.10;9.17;;;25.20;88.20;;;;;;5043420;28;20210;-59
2023/08/20 05:31:21;;;;;;;9.70;8.77;;;25.20;88.10;;;;;;5050499;28;20201;-60
2023/08/20 05:33:49;;;;;;;10.83;9.23;;;25.30;88.00;;;;;;5041184;28;20240;-60
2023/08/20 05:36:17;;;;;;;10.33;8.40;;;25.40;87.90;;;;;;5049134;28;20540;-60
2023/08/20 05:38:47;;;;;;;10.00;9.00;;;25.50;87.80;;;;;;5038219;28;20660;-59
2023/08/20 05:41:14;;;;;;;10.40;9.30;;;25.50;87.50;;;;;;5043442;28;20199;-60
2023/08/20 05:43:41;;;;;;;13.57;8.23;;;25.60;87.30;;;;;;5043074;28;20634;-60
2023/08/20 05:46:08;;;;;;;11.63;8.37;;;25.70;87.20;;;;;;5043321;28;20203;-60
2023/08/20 05:48:35;;;;;;;13.03;9.00;;;25.80;87.10;;;;;;5046013;28;20227;-61
2023/08/20 05:51:03;;;;;;;11.10;9.90;;;25.90;87.10;;;;;;5047127;28;20220;-60
2023/08/20 05:53:30;;;;;;;10.57;9.43;;;26.00;86.90;;;;;;5047243;28;20203;-60
2023/08/20 05:55:57;;;;;;;12.83;9.17;;;26.10;86.60;;;;;;5043340;28;20220;-59
2023/08/20 05:58:24;;;;;;;11.87;8.90;;;26.30;86.60;;;;;;5048322;28;20218;-60
2023/08/20 06:00:51;;;;;;;10.87;9.40;;;26.50;86.40;;;;;;5045409;28;20207;-60
2023/08/20 06:03:19;;;;;;;16.17;8.90;;;26.60;86.20;;;;;;5045981;28;20202;-60
2023/08/20 06:05:46;;;;;;;12.03;10.10;;;26.80;85.90;;;;;;5040821;28;20246;-60
2023/08/20 06:08:13;;;;;;;11.97;10.00;;;26.90;85.20;;;;;;5038310;28;20199;-60
2023/08/20 06:10:40;;;;;;;14.57;11.00;;;27.10;84.90;;;;;;5044333;28;20209;-60
2023/08/20 06:13:07;;;;;;;14.77;12.40;;;27.20;84.60;;;;;;5039336;28;20205;-60
2023/08/20 06:15:34;;;;;;;13.87;12.33;;;27.30;84.10;;;;;;5041977;28;20534;-60
2023/08/20 06:18:01;;;;;;;14.13;12.93;;;27.50;83.80;;;;;;5039012;28;20202;-60
2023/08/20 06:20:28;;;;;;;17.47;14.00;;;27.60;83.30;;;;;;5041556;28;20191;-60
2023/08/20 06:22:55;;;;;;;15.97;14.43;;;27.80;83.00;;;;;;5040174;28;20567;-60
2023/08/20 06:25:22;;;;;;;14.47;11.43;;;27.90;82.90;;;;;;5042460;28;20199;-60
2023/08/20 06:27:49;;;;;;;18.07;14.70;;;28.10;82.80;;;;;;5039033;28;20609;-60
2023/08/20 06:30:16;;;;;;;16.07;14.47;;;28.30;82.40;;;;;;5038286;28;20211;-60
2023/08/20 06:32:44;;;;;;;18.50;16.70;;;28.40;82.00;;;;;;5044524;28;20221;-60
2023/08/20 06:35:11;;;;;;;19.73;17.83;;;28.60;81.50;;;;;;5047072;28;20207;-60
2023/08/20 06:37:40;;;;;;;22.07;19.77;;;28.70;80.80;;;;;;5041181;28;20194;-60
2023/08/20 06:40:08;;;;;;;21.87;19.33;;;28.80;80.30;;;;;;5041357;28;20620;-60
2023/08/20 06:42:35;;;;;;;20.93;19.00;;;28.90;80.10;;;;;;5042797;28;20215;-60
2023/08/20 06:45:07;;;;;;;19.20;17.37;;;29.00;80.00;;;;;;5037952;28;20210;-60
2023/08/20 06:47:34;;;;;;;21.17;19.17;;;29.00;80.00;;;;;;5039696;28;20294;-60
2023/08/20 06:50:02;;;;;;;19.57;17.70;;;29.10;79.70;;;;;;5042263;28;20210;-61
2023/08/20 06:52:29;;;;;;;22.70;20.17;;;29.20;79.80;;;;;;5040962;28;20199;-60
2023/08/20 06:54:56;;;;;;;22.80;20.20;;;29.20;79.10;;;;;;5040748;28;20222;-60
2023/08/20 06:57:23;;;;;;;24.73;19.73;;;29.30;78.70;;;;;;5043111;28;20190;-60
2023/08/20 06:59:50;;;;;;;19.47;17.70;;;29.40;78.40;;;;;;5043240;28;20215;-60
2023/08/20 07:02:17;;;;;;;18.43;16.77;;;29.50;78.60;;;;;;5040803;28;20211;-60
2023/08/20 07:04:44;;;;;;;19.20;17.30;;;29.70;78.70;;;;;;5044452;28;20238;-60
2023/08/20 07:07:12;;;;;;;21.43;19.20;;;29.80;78.50;;;;;;5042393;28;20207;-60
2023/08/20 07:09:39;;;;;;;18.33;16.63;;;29.90;78.00;;;;;;5043080;28;20217;-60
2023/08/20 07:12:07;;;;;;;20.53;18.37;;;30.00;77.50;;;;;;5041460;28;20214;-60
2023/08/20 07:14:34;;;;;;;19.23;16.27;;;30.00;77.00;;;;;;5042620;28;20648;-60
2023/08/20 07:17:02;;;;;;;18.33;16.67;;;30.10;77.30;;;;;;5042429;28;20207;-60
2023/08/20 07:19:29;;;;;;;17.20;15.57;;;30.30;77.40;;;;;;5038331;28;20260;-60
2023/08/20 07:21:56;;;;;;;17.53;15.70;;;30.40;77.30;;;;;;5044182;28;20695;-60
2023/08/20 07:24:25;;;;;;;18.63;16.47;;;30.50;77.20;;;;;;5044630;28;20283;-60
2023/08/20 07:26:55;;;;;;;18.00;15.17;;;30.70;76.60;;;;;;5040909;28;20210;-60
2023/08/20 07:29:24;;;;;;;18.30;16.57;;;30.80;76.20;;;;;;5041137;28;20203;-60
2023/08/20 07:31:51;;;;;;;17.13;15.40;;;31.00;75.60;;;;;;5042418;28;20211;-60
2023/08/20 07:34:19;;;;;;;15.23;13.87;;;31.10;75.30;;;;;;5041141;28;20229;-61
2023/08/20 07:36:47;;;;;;;14.97;13.40;;;31.10;75.10;;;;;;5041072;28;20214;-60
2023/08/20 07:39:14;;;;;;;15.13;13.50;;;31.20;74.90;;;;;;5042803;28;20190;-60
2023/08/20 07:41:44;;;;;;;14.50;12.90;;;31.30;75.10;;;;;;5038757;28;20195;-60
2023/08/20 07:44:11;;;;;;;15.27;13.13;;;31.40;74.20;;;;;;5035774;28;20681;-60
2023/08/20 07:46:38;;;;;;;12.90;11.77;;;31.60;73.30;;;;;;5043951;28;20631;-60
2023/08/20 07:49:05;;;;;;;14.50;12.10;;;31.60;72.60;;;;;;5040847;28;20198;-60
2023/08/20 07:51:32;;;;;;;15.53;13.20;;;31.60;72.80;;;;;;5040665;28;20203;-60
2023/08/20 07:54:00;;;;;;;13.40;11.87;;;31.70;72.60;;;;;;5038608;28;20203;-60
2023/08/20 07:56:27;;;;;;;13.43;12.03;;;31.80;71.90;;;;;;5041252;28;20222;-60
2023/08/20 07:58:55;;;;;;;13.27;11.97;;;31.90;71.80;;;;;;5038276;28;20191;-60
2023/08/20 08:01:22;;;;;;;15.80;12.27;;;32.00;71.00;;;;;;5039337;28;20190;-60
2023/08/20 08:03:49;;;;;;;13.20;12.10;;;32.10;70.40;;;;;;5040557;28;20207;-60
2023/08/20 08:06:18;;;;;;;12.73;11.70;;;32.20;69.80;;;;;;5040550;28;20325;-60
2023/08/20 08:08:45;;;;;;;12.20;11.03;;;32.20;69.90;;;;;;5041340;28;20302;-60
2023/08/20 08:11:12;;;;;;;13.13;12.10;;;32.40;69.60;;;;;;5044555;28;20199;-60
2023/08/20 08:13:39;;;;;;;12.57;11.30;;;32.50;68.40;;;;;;5040300;28;20207;-60
2023/08/20 08:16:06;;;;;;;13.33;12.13;;;32.60;68.20;;;;;;5040398;28;20210;-60
2023/08/20 08:18:33;;;;;;;12.93;11.73;;;32.70;67.80;;;;;;5045746;28;20591;-60
2023/08/20 08:21:00;;;;;;;12.13;11.00;;;32.80;66.30;;;;;;5038403;28;20195;-60
2023/08/20 08:23:27;;;;;;;11.37;10.57;;;32.80;66.40;;;;;;5038706;28;20272;-60
2023/08/20 08:25:54;;;;;;;13.10;10.77;;;32.90;65.00;;;;;;5044494;28;20264;-60
2023/08/20 08:28:21;;;;;;;12.00;10.37;;;33.00;64.90;;;;;;5041961;28;20542;-60
2023/08/20 08:30:48;;;;;;;11.10;10.20;;;33.10;65.00;;;;;;5039713;28;20206;-60
2023/08/20 08:33:15;;;;;;;11.53;10.53;;;33.20;63.70;;;;;;5043232;28;20199;-60
2023/08/20 08:35:42;;;;;;;11.20;10.30;;;33.40;62.40;;;;;;5045555;28;20233;-60
2023/08/20 08:38:09;;;;;;;11.03;9.87;;;33.50;62.30;;;;;;5041565;28;20210;-60
2023/08/20 08:40:38;;;;;;;11.33;10.20;;;33.60;62.10;;;;;;5040258;28;20278;-60
2023/08/20 08:43:05;;;;;;;10.60;9.67;;;33.70;62.00;;;;;;5042926;28;20194;-60
2023/08/20 08:45:33;;;;;;;11.37;10.37;;;33.80;61.80;;;;;;5041937;28;20742;-60
2023/08/20 08:48:03;;;;;;;12.20;10.90;;;34.00;61.50;;;;;;5039534;28;20208;-60
2023/08/20 08:50:32;;;;;;;15.13;10.20;;;34.20;61.30;;;;;;5040058;28;20213;-60
2023/08/20 08:52:59;;;;;;;10.00;9.13;;;34.30;60.10;;;;;;5044279;28;20209;-60
2023/08/20 08:55:26;;;;;;;12.70;8.90;;;34.40;59.60;;;;;;5043854;28;20301;-60
2023/08/20 08:57:53;;;;;;;12.20;9.50;;;34.50;59.00;;;;;;5043067;28;20636;-60
2023/08/20 09:00:20;;;;;;;10.83;9.90;;;34.50;58.80;;;;;;5044423;28;20203;-60
2023/08/20 09:02:47;;;;;;;11.03;9.87;;;34.50;58.70;;;;;;5042296;28;20194;-60
2023/08/20 09:05:14;;;;;;;10.60;9.70;;;34.50;58.90;;;;;;5045997;28;20256;-60
2023/08/20 09:07:47;;;;;;;10.40;9.50;;;34.50;58.20;;;;;;5042708;28;20222;-60
2023/08/20 09:10:18;;;;;;;10.60;9.57;;;34.50;58.20;;;;;;5043851;28;20526;-60
2023/08/20 09:12:47;;;;;;;10.57;9.53;;;34.50;58.40;;;;;;5042602;28;20220;-60
2023/08/20 09:15:14;;;;;;;10.67;9.77;;;34.50;58.60;;;;;;5044652;28;20279;-60
2023/08/20 09:17:42;;;;;;;10.00;9.00;;;34.60;58.80;;;;;;5038730;28;20205;-60
2023/08/20 09:20:09;;;;;;;10.10;9.30;;;34.80;59.00;;;;;;5043909;28;20585;-60
2023/08/20 09:22:37;;;;;;;11.37;10.27;;;34.90;59.10;;;;;;5047661;28;20205;-61
2023/08/20 09:25:04;;;;;;;10.83;9.83;;;35.10;58.50;;;;;;5037925;28;20580;-60
2023/08/20 09:27:40;;;;;;;11.80;10.70;;;35.10;57.70;;;;;;5040460;28;20207;-60
2023/08/20 09:30:07;;;;;;;10.40;9.40;;;35.10;58.10;;;;;;5044326;28;20208;-60
2023/08/20 09:32:34;;;;;;;10.52;9.63;;;35.10;58.10;;;;;;5036881;28;20209;-60
2023/08/20 09:35:01;;;;;;;9.93;9.03;;;35.20;58.20;;;;;;5044247;28;20250;-60
2023/08/20 09:37:28;;;;;;;9.43;8.47;;;35.40;58.10;;;;;;5040263;28;20214;-60
2023/08/20 09:39:55;;;;;;;9.70;8.80;;;35.50;58.00;;;;;;5043926;28;20211;-60
2023/08/20 09:42:24;;;;;;;12.60;8.87;;;35.70;57.00;;;;;;5040818;28;20195;-60
2023/08/20 09:44:52;;;;;;;9.15;8.43;;;35.80;56.40;;;;;;5043065;28;20198;-60
2023/08/20 09:47:24;;;;;;;8.95;8.25;;;35.90;56.20;;;;;;5043655;28;20195;-61
2023/08/20 09:49:52;;;;;;;9.13;8.30;;;36.00;54.50;;;;;;5041572;28;20195;-60
2023/08/20 09:52:28;;;;;;;9.20;8.40;;;35.90;54.60;;;;;;5042936;28;20659;-60
2023/08/20 09:55:08;;;;;;;10.10;9.15;;;35.90;55.80;;;;;;5045354;28;20321;-60
2023/08/20 09:57:37;;;;;;;9.23;8.30;;;36.00;55.30;;;;;;5041877;28;20270;-60
2023/08/20 10:00:09;;;;;;;9.05;8.05;;;35.90;54.10;;;;;;5040855;28;20221;-60
2023/08/20 10:02:40;;;;;;;9.32;8.38;;;35.90;53.70;;;;;;5042842;28;20199;-60
2023/08/20 10:05:09;;;;;;;9.85;8.40;;;35.90;53.30;;;;;;5042737;28;20258;-60
2023/08/20 10:07:37;;;;;;;8.50;7.68;;;35.90;54.30;;;;;;5039193;28;20218;-60
2023/08/20 10:10:07;;;;;;;9.60;8.68;;;36.00;53.20;;;;;;5043795;28;20260;-60
2023/08/20 10:12:36;;;;;;;9.48;8.52;;;36.00;53.20;;;;;;5041706;28;20199;-60
2023/08/20 10:15:04;;;;;;;9.88;8.30;;;36.10;53.10;;;;;;5044277;28;20667;-60
2023/08/20 10:17:33;;;;;;;10.45;8.98;;;36.20;53.00;;;;;;5042949;28;20216;-60
2023/08/20 10:20:04;;;;;;;9.80;8.32;;;36.20;52.50;;;;;;5044860;28;20217;-61
2023/08/20 10:22:39;;;;;;;9.73;8.82;;;36.20;51.90;;;;;;5043829;28;20210;-60
2023/08/20 10:25:12;;;;;;;8.93;8.18;;;36.30;51.70;;;;;;5041175;28;20199;-60
2023/08/20 10:27:42;;;;;;;9.57;8.77;;;36.30;52.10;;;;;;5044235;28;20200;-60
2023/08/20 10:30:17;;;;;;;9.75;8.73;;;36.40;51.40;;;;;;5040909;28;20616;-60
2023/08/20 10:32:51;;;;;;;8.80;8.20;;;36.40;52.00;;;;;;5041499;28;20208;-60
2023/08/20 10:35:23;;;;;;;9.27;8.57;;;36.50;51.50;;;;;;5042504;28;20214;-60
2023/08/20 10:38:17;;;;;;;8.82;8.20;;;36.60;50.80;;;;;;5040752;28;20261;-60
2023/08/20 10:40:55;;;;;;;9.10;8.40;;;36.70;50.60;;;;;;5040219;28;20288;-61
2023/08/20 10:43:25;;;;;;;9.13;8.43;;;36.70;50.20;;;;;;5045709;28;20202;-60
2023/08/20 10:46:19;;;;;;;7.70;7.13;;;36.70;50.00;;;;;;5039426;28;20217;-60
2023/08/20 10:48:54;;;;;;;8.88;7.35;;;36.50;49.30;;;;;;5038683;28;20203;-61
2023/08/20 10:51:28;;;;;;;8.00;7.20;;;36.60;50.20;;;;;;5036700;28;20206;-60
2023/08/20 10:54:01;;;;;;;8.82;8.10;;;36.60;50.50;;;;;;5043279;28;20199;-60
2023/08/20 10:56:42;;;;;;;9.25;7.20;;;36.80;49.80;;;;;;5036887;28;20223;-60
2023/08/20 10:59:22;;;;;;;7.80;7.20;;;37.00;49.60;;;;;;5037662;28;20648;-61
2023/08/20 11:01:51;;;;;;;8.85;7.97;;;37.00;48.50;;;;;;5038705;28;20203;-60
2023/08/20 11:04:20;;;;;;;8.73;7.63;;;37.00;48.70;;;;;;5041365;28;20195;-60
2023/08/20 11:06:52;;;;;;;8.77;7.97;;;37.00;49.20;;;;;;5042330;28;20210;-60
2023/08/20 11:09:21;;;;;;;8.27;7.57;;;37.00;48.80;;;;;;5039125;28;20195;-60
2023/08/20 11:11:48;;;;;;;8.05;7.35;;;37.10;49.00;;;;;;5039895;28;20203;-60
2023/08/20 11:14:18;;;;;;;7.88;7.28;;;37.20;48.90;;;;;;5038248;28;20195;-60
2023/08/20 11:16:45;;;;;;;7.70;7.10;;;37.30;47.00;;;;;;5037219;28;20234;-61
2023/08/20 11:19:14;;;;;;;7.90;7.20;;;37.20;47.90;;;;;;5039645;28;20234;-60
2023/08/20 11:21:42;;;;;;;8.10;7.30;;;37.30;48.50;;;;;;5046558;28;20550;-60
2023/08/20 11:24:10;;;;;;;7.35;6.65;;;37.50;48.50;;;;;;5041635;28;20282;-60
2023/08/20 11:26:41;;;;;;;7.82;7.07;;;37.50;47.70;;;;;;5039604;28;20209;-60
2023/08/20 11:29:12;;;;;;;7.72;7.03;;;37.50;47.40;;;;;;5043116;28;20225;-60
2023/08/20 11:31:40;;;;;;;7.00;6.50;;;37.50;47.40;;;;;;5042680;28;20239;-61
2023/08/20 11:34:10;;;;;;;8.43;7.75;;;37.50;47.20;;;;;;5040274;28;20203;-60
2023/08/20 11:36:39;;;;;;;8.38;7.78;;;37.40;47.50;;;;;;5034541;28;20771;-60
2023/08/20 11:39:07;;;;;;;8.35;7.70;;;37.30;47.90;;;;;;5041168;28;20206;-60
2023/08/20 11:41:37;;;;;;;7.88;7.05;;;37.30;48.10;;;;;;5042264;28;20190;-60
2023/08/20 11:44:05;;;;;;;7.38;6.68;;;37.30;48.20;;;;;;5039487;28;20223;-60
2023/08/20 11:46:32;;;;;;;7.93;7.22;;;37.30;47.30;;;;;;5041988;28;20202;-60
2023/08/20 11:49:00;;;;;;;7.97;7.35;;;37.40;48.10;;;;;;5040352;28;20218;-60
2023/08/20 11:51:27;;;;;;;8.38;7.57;;;37.50;49.20;;;;;;5040304;28;20640;-61
2023/08/20 11:53:58;;;;;;;9.02;7.20;;;37.60;48.60;;;;;;5040175;28;20202;-60
2023/08/20 11:56:27;;;;;;;6.93;6.22;;;37.70;47.80;;;;;;5042203;28;20215;-60
2023/08/20 11:58:59;;;;;;;7.57;6.93;;;37.70;47.30;;;;;;5039934;28;20256;-60
2023/08/20 12:01:30;;;;;;;7.80;7.13;;;37.80;47.30;;;;;;5041890;28;20553;-61
2023/08/20 12:04:04;;;;;;;7.32;6.82;;;37.80;46.60;;;;;;5040787;28;20214;-60
2023/08/20 12:06:33;;;;;;;8.25;7.50;;;37.70;46.70;;;;;;5042341;28;20234;-60
2023/08/20 12:09:01;;;;;;;7.63;6.70;;;37.70;47.00;;;;;;5039100;28;20506;-61
2023/08/20 12:11:29;;;;;;;8.00;7.20;;;37.60;45.60;;;;;;5038468;28;20206;-60
2023/08/20 12:13:56;;;;;;;7.60;7.05;;;37.50;46.20;;;;;;5039570;28;20257;-61
2023/08/20 12:16:24;;;;;;;8.52;7.72;;;37.40;46.40;;;;;;5035961;28;20206;-60
2023/08/20 12:18:52;;;;;;;8.68;7.88;;;37.40;47.10;;;;;;5037909;28;20202;-61
2023/08/20 12:21:19;;;;;;;8.00;7.30;;;37.40;47.70;;;;;;5039988;28;20286;-60
2023/08/20 12:23:46;;;;;;;8.88;7.97;;;37.40;47.80;;;;;;5038096;28;20206;-61
2023/08/20 12:26:14;;;;;;;8.15;7.38;;;37.50;47.70;;;;;;5034018;28;20206;-60
2023/08/20 12:28:41;;;;;;;8.05;7.25;;;37.50;48.20;;;;;;5036760;28;20230;-60
2023/08/20 12:31:08;;;;;;;8.70;7.90;;;37.50;49.10;;;;;;5037733;28;20257;-61
2023/08/20 12:33:35;;;;;;;7.80;7.10;;;37.60;48.20;;;;;;5047965;28;20237;-61
2023/08/20 12:36:03;;;;;;;7.93;7.22;;;37.60;48.00;;;;;;5043354;28;20215;-60
2023/08/20 12:38:33;;;;;;;9.55;6.38;;;37.70;47.50;;;;;;5042752;28;20535;-60
2023/08/20 12:41:03;;;;;;;7.85;5.47;;;37.70;46.70;;;;;;5038872;28;21244;-60
2023/08/20 12:43:30;;;;;;;7.03;6.28;;;37.70;45.10;;;;;;5047240;28;20195;-60
2023/08/20 12:45:57;;;;;;;6.95;6.25;;;37.60;44.80;;;;;;5041865;28;20250;-60
2023/08/20 12:48:24;;;;;;;6.65;6.15;;;37.50;45.20;;;;;;5040383;28;20199;-60